sensor_id;sensor_type;location;lat;lon;timestamp;temperature;humidity
37268;DHT22;23154;52.542;13.362;2022-08-05T00:01:39;26.30;77.80
37268;DHT22;23154;52.542;13.362;2022-08-05T00:04:05;26.10;78.30
37268;DHT22;23154;52.542;13.362;2022-08-05T00:06:31;26.00;79.00
37268;DHT22;23154;52.542;13.362;2022-08-05T00:08:57;26.00;79.10
37268;DHT22;23154;52.542;13.362;2022-08-05T00:11:24;25.90;78.60
37268;DHT22;23154;52.542;13.362;2022-08-05T00:13:50;25.90;78.90
37268;DHT22;23154;52.542;13.362;2022-08-05T00:16:15;25.80;79.40
37268;DHT22;23154;52.542;13.362;2022-08-05T00:18:44;25.80;79.50
37268;DHT22;23154;52.542;13.362;2022-08-05T00:21:11;25.80;80.00
37268;DHT22;23154;52.542;13.362;2022-08-05T00:23:38;25.80;80.70
37268;DHT22;23154;52.542;13.362;2022-08-05T00:26:05;25.70;80.60
37268;DHT22;23154;52.542;13.362;2022-08-05T00:28:31;25.70;80.60
37268;DHT22;23154;52.542;13.362;2022-08-05T00:30:56;25.70;81.50
37268;DHT22;23154;52.542;13.362;2022-08-05T00:33:22;25.60;81.00
37268;DHT22;23154;52.542;13.362;2022-08-05T00:35:47;25.50;81.40
37268;DHT22;23154;52.542;13.362;2022-08-05T00:38:13;25.50;81.80
37268;DHT22;23154;52.542;13.362;2022-08-05T00:40:53;25.40;82.50
37268;DHT22;23154;52.542;13.362;2022-08-05T00:43:20;25.30;82.30
37268;DHT22;23154;52.542;13.362;2022-08-05T00:45:46;25.30;83.20
37268;DHT22;23154;52.542;13.362;2022-08-05T00:48:22;25.20;83.50
37268;DHT22;23154;52.542;13.362;2022-08-05T00:50:49;25.10;83.50
37268;DHT22;23154;52.542;13.362;2022-08-05T00:53:18;25.10;84.00
37268;DHT22;23154;52.542;13.362;2022-08-05T00:55:44;25.00;84.00
37268;DHT22;23154;52.542;13.362;2022-08-05T00:58:11;25.10;84.00
37268;DHT22;23154;52.542;13.362;2022-08-05T01:00:38;25.10;83.90
37268;DHT22;23154;52.542;13.362;2022-08-05T01:03:05;25.20;83.90
37268;DHT22;23154;52.542;13.362;2022-08-05T01:05:30;25.40;87.30
37268;DHT22;23154;52.542;13.362;2022-08-05T01:07:56;25.30;87.40
37268;DHT22;23154;52.542;13.362;2022-08-05T01:10:28;25.30;88.50
37268;DHT22;23154;52.542;13.362;2022-08-05T01:12:59;25.30;89.50
37268;DHT22;23154;52.542;13.362;2022-08-05T01:15:31;25.20;90.40
37268;DHT22;23154;52.542;13.362;2022-08-05T01:18:06;24.90;91.10
37268;DHT22;23154;52.542;13.362;2022-08-05T01:20:45;24.80;91.60
37268;DHT22;23154;52.542;13.362;2022-08-05T01:28:56;24.40;93.40
37268;DHT22;23154;52.542;13.362;2022-08-05T01:31:31;24.40;93.90
37268;DHT22;23154;52.542;13.362;2022-08-05T01:34:06;24.30;94.90
37268;DHT22;23154;52.542;13.362;2022-08-05T01:36:39;24.20;95.30
37268;DHT22;23154;52.542;13.362;2022-08-05T01:39:07;24.00;96.70
37268;DHT22;23154;52.542;13.362;2022-08-05T01:41:34;24.00;98.40
37268;DHT22;23154;52.542;13.362;2022-08-05T01:44:01;24.00;99.30
37268;DHT22;23154;52.542;13.362;2022-08-05T01:46:30;23.90;99.90
37268;DHT22;23154;52.542;13.362;2022-08-05T01:48:57;23.90;99.90
37268;DHT22;23154;52.542;13.362;2022-08-05T01:51:24;23.90;99.90
37268;DHT22;23154;52.542;13.362;2022-08-05T01:53:52;23.90;99.90
37268;DHT22;23154;52.542;13.362;2022-08-05T01:56:20;23.80;99.90
37268;DHT22;23154;52.542;13.362;2022-08-05T01:58:48;23.70;99.90
37268;DHT22;23154;52.542;13.362;2022-08-05T02:01:17;23.70;99.90
37268;DHT22;23154;52.542;13.362;2022-08-05T02:03:45;23.70;99.90
37268;DHT22;23154;52.542;13.362;2022-08-05T02:06:13;23.70;99.90
37268;DHT22;23154;52.542;13.362;2022-08-05T02:08:39;23.60;99.90
37268;DHT22;23154;52.542;13.362;2022-08-05T02:11:09;23.60;99.90
37268;DHT22;23154;52.542;13.362;2022-08-05T02:19:10;23.50;99.90
37268;DHT22;23154;52.542;13.362;2022-08-05T02:22:30;23.50;99.90
37268;DHT22;23154;52.542;13.362;2022-08-05T02:24:37;23.50;99.90
37268;DHT22;23154;52.542;13.362;2022-08-05T02:27:06;23.50;99.90
37268;DHT22;23154;52.542;13.362;2022-08-05T02:29:34;23.50;99.90
37268;DHT22;23154;52.542;13.362;2022-08-05T02:32:01;23.50;99.90
37268;DHT22;23154;52.542;13.362;2022-08-05T02:34:30;23.40;99.90
37268;DHT22;23154;52.542;13.362;2022-08-05T02:37:01;23.40;99.90
37268;DHT22;23154;52.542;13.362;2022-08-05T02:39:31;23.40;99.90
37268;DHT22;23154;52.542;13.362;2022-08-05T02:42:00;23.30;99.90
37268;DHT22;23154;52.542;13.362;2022-08-05T02:44:27;23.40;99.90
37268;DHT22;23154;52.542;13.362;2022-08-05T02:46:55;23.30;99.90
37268;DHT22;23154;52.542;13.362;2022-08-05T02:49:23;23.30;99.90
37268;DHT22;23154;52.542;13.362;2022-08-05T02:51:50;23.20;99.90
37268;DHT22;23154;52.542;13.362;2022-08-05T02:54:17;23.20;99.90
37268;DHT22;23154;52.542;13.362;2022-08-05T02:56:44;23.10;99.90
37268;DHT22;23154;52.542;13.362;2022-08-05T02:59:11;23.10;99.90
37268;DHT22;23154;52.542;13.362;2022-08-05T03:01:39;23.10;99.90
37268;DHT22;23154;52.542;13.362;2022-08-05T03:04:07;23.10;99.90
37268;DHT22;23154;52.542;13.362;2022-08-05T03:06:35;23.00;99.90
37268;DHT22;23154;52.542;13.362;2022-08-05T03:09:01;23.00;99.90
37268;DHT22;23154;52.542;13.362;2022-08-05T03:11:27;22.90;99.90
37268;DHT22;23154;52.542;13.362;2022-08-05T03:13:55;23.00;99.90
37268;DHT22;23154;52.542;13.362;2022-08-05T03:16:20;22.90;99.90
37268;DHT22;23154;52.542;13.362;2022-08-05T03:18:47;22.90;99.90
37268;DHT22;23154;52.542;13.362;2022-08-05T03:21:12;22.80;99.90
37268;DHT22;23154;52.542;13.362;2022-08-05T03:23:41;22.80;99.90
37268;DHT22;23154;52.542;13.362;2022-08-05T03:26:07;22.80;99.90
37268;DHT22;23154;52.542;13.362;2022-08-05T03:28:33;22.90;99.90
37268;DHT22;23154;52.542;13.362;2022-08-05T03:30:59;22.90;99.90
37268;DHT22;23154;52.542;13.362;2022-08-05T03:33:26;22.90;99.90
37268;DHT22;23154;52.542;13.362;2022-08-05T03:35:54;22.90;99.90
37268;DHT22;23154;52.542;13.362;2022-08-05T03:38:23;22.90;99.90
37268;DHT22;23154;52.542;13.362;2022-08-05T03:40:49;23.00;99.90
37268;DHT22;23154;52.542;13.362;2022-08-05T03:43:16;22.90;99.90
37268;DHT22;23154;52.542;13.362;2022-08-05T03:45:42;22.90;99.90
37268;DHT22;23154;52.542;13.362;2022-08-05T03:48:08;23.00;99.90
37268;DHT22;23154;52.542;13.362;2022-08-05T03:50:47;23.00;99.90
37268;DHT22;23154;52.542;13.362;2022-08-05T03:53:22;23.00;99.90
37268;DHT22;23154;52.542;13.362;2022-08-05T03:55:56;23.00;99.90
37268;DHT22;23154;52.542;13.362;2022-08-05T03:58:23;23.00;99.90
37268;DHT22;23154;52.542;13.362;2022-08-05T04:00:52;22.90;99.90
37268;DHT22;23154;52.542;13.362;2022-08-05T04:03:21;23.00;99.90
37268;DHT22;23154;52.542;13.362;2022-08-05T04:05:49;23.00;99.90
37268;DHT22;23154;52.542;13.362;2022-08-05T04:08:15;23.10;99.90
37268;DHT22;23154;52.542;13.362;2022-08-05T04:10:42;23.10;99.90
37268;DHT22;23154;52.542;13.362;2022-08-05T04:13:10;23.20;99.90
37268;DHT22;23154;52.542;13.362;2022-08-05T04:15:35;23.30;99.90
37268;DHT22;23154;52.542;13.362;2022-08-05T04:18:03;23.30;99.90
37268;DHT22;23154;52.542;13.362;2022-08-05T04:20:29;23.30;99.90
37268;DHT22;23154;52.542;13.362;2022-08-05T04:22:54;23.40;99.90
37268;DHT22;23154;52.542;13.362;2022-08-05T04:25:20;23.50;99.90
37268;DHT22;23154;52.542;13.362;2022-08-05T04:27:45;23.50;99.90
37268;DHT22;23154;52.542;13.362;2022-08-05T04:30:11;23.50;99.90
37268;DHT22;23154;52.542;13.362;2022-08-05T04:32:37;23.60;99.90
37268;DHT22;23154;52.542;13.362;2022-08-05T04:35:03;23.60;99.90
37268;DHT22;23154;52.542;13.362;2022-08-05T04:37:28;23.60;99.90
37268;DHT22;23154;52.542;13.362;2022-08-05T04:39:55;23.70;99.90
37268;DHT22;23154;52.542;13.362;2022-08-05T04:42:20;23.70;99.90
37268;DHT22;23154;52.542;13.362;2022-08-05T04:44:46;23.90;99.90
37268;DHT22;23154;52.542;13.362;2022-08-05T04:47:13;24.00;99.90
37268;DHT22;23154;52.542;13.362;2022-08-05T04:49:38;24.10;99.90
37268;DHT22;23154;52.542;13.362;2022-08-05T04:52:05;24.30;99.90
37268;DHT22;23154;52.542;13.362;2022-08-05T04:54:30;24.50;99.90
37268;DHT22;23154;52.542;13.362;2022-08-05T04:56:56;24.50;99.90
37268;DHT22;23154;52.542;13.362;2022-08-05T04:59:21;24.60;99.90
37268;DHT22;23154;52.542;13.362;2022-08-05T05:01:50;24.60;99.90
37268;DHT22;23154;52.542;13.362;2022-08-05T05:04:16;24.70;99.90
37268;DHT22;23154;52.542;13.362;2022-08-05T05:06:42;24.60;99.90
37268;DHT22;23154;52.542;13.362;2022-08-05T05:09:12;24.60;99.90
37268;DHT22;23154;52.542;13.362;2022-08-05T05:11:37;24.70;99.90
37268;DHT22;23154;52.542;13.362;2022-08-05T05:14:03;24.60;99.90
37268;DHT22;23154;52.542;13.362;2022-08-05T05:16:29;24.60;99.90
37268;DHT22;23154;52.542;13.362;2022-08-05T05:18:54;24.70;99.90
37268;DHT22;23154;52.542;13.362;2022-08-05T05:21:20;24.80;99.90
37268;DHT22;23154;52.542;13.362;2022-08-05T05:23:46;24.90;99.90
37268;DHT22;23154;52.542;13.362;2022-08-05T05:26:11;24.70;99.90
37268;DHT22;23154;52.542;13.362;2022-08-05T05:28:37;24.80;99.90
37268;DHT22;23154;52.542;13.362;2022-08-05T05:31:02;24.80;99.90
37268;DHT22;23154;52.542;13.362;2022-08-05T05:33:28;24.80;99.90
37268;DHT22;23154;52.542;13.362;2022-08-05T05:35:54;24.80;99.90
37268;DHT22;23154;52.542;13.362;2022-08-05T05:38:19;24.80;99.90
37268;DHT22;23154;52.542;13.362;2022-08-05T05:40:45;24.80;99.90
37268;DHT22;23154;52.542;13.362;2022-08-05T05:43:10;24.90;99.90
37268;DHT22;23154;52.542;13.362;2022-08-05T05:45:36;25.00;99.90
37268;DHT22;23154;52.542;13.362;2022-08-05T05:48:02;25.10;99.90
37268;DHT22;23154;52.542;13.362;2022-08-05T05:50:30;25.10;99.90
37268;DHT22;23154;52.542;13.362;2022-08-05T05:52:56;25.20;99.90
37268;DHT22;23154;52.542;13.362;2022-08-05T05:55:21;25.20;99.90
37268;DHT22;23154;52.542;13.362;2022-08-05T05:57:47;25.20;99.90
37268;DHT22;23154;52.542;13.362;2022-08-05T06:00:18;25.20;99.90
37268;DHT22;23154;52.542;13.362;2022-08-05T06:02:45;25.20;99.90
37268;DHT22;23154;52.542;13.362;2022-08-05T06:05:14;25.00;99.90
37268;DHT22;23154;52.542;13.362;2022-08-05T06:07:40;25.10;99.90
37268;DHT22;23154;52.542;13.362;2022-08-05T06:10:08;25.10;99.90
37268;DHT22;23154;52.542;13.362;2022-08-05T06:12:35;25.10;99.90
37268;DHT22;23154;52.542;13.362;2022-08-05T06:15:02;25.00;99.90
37268;DHT22;23154;52.542;13.362;2022-08-05T06:17:28;24.80;99.90
37268;DHT22;23154;52.542;13.362;2022-08-05T06:19:53;24.70;99.90
37268;DHT22;23154;52.542;13.362;2022-08-05T06:22:30;24.60;99.90
37268;DHT22;23154;52.542;13.362;2022-08-05T06:24:56;24.50;99.90
37268;DHT22;23154;52.542;13.362;2022-08-05T06:27:22;24.40;99.90
37268;DHT22;23154;52.542;13.362;2022-08-05T06:29:47;24.60;99.90
37268;DHT22;23154;52.542;13.362;2022-08-05T06:32:13;24.60;99.90
37268;DHT22;23154;52.542;13.362;2022-08-05T06:34:39;24.70;99.90
37268;DHT22;23154;52.542;13.362;2022-08-05T06:37:05;24.90;99.90
37268;DHT22;23154;52.542;13.362;2022-08-05T06:39:31;25.00;99.90
37268;DHT22;23154;52.542;13.362;2022-08-05T06:41:57;24.80;99.90
37268;DHT22;23154;52.542;13.362;2022-08-05T06:44:25;24.80;99.90
37268;DHT22;23154;52.542;13.362;2022-08-05T06:46:52;25.10;99.90
37268;DHT22;23154;52.542;13.362;2022-08-05T06:49:17;25.10;99.90
37268;DHT22;23154;52.542;13.362;2022-08-05T06:51:43;25.00;99.90
37268;DHT22;23154;52.542;13.362;2022-08-05T06:54:08;25.00;99.90
37268;DHT22;23154;52.542;13.362;2022-08-05T06:56:34;25.10;99.90
37268;DHT22;23154;52.542;13.362;2022-08-05T06:58:59;25.20;99.90
37268;DHT22;23154;52.542;13.362;2022-08-05T07:01:25;25.20;99.90
37268;DHT22;23154;52.542;13.362;2022-08-05T07:03:51;25.30;99.90
37268;DHT22;23154;52.542;13.362;2022-08-05T07:06:17;25.60;99.90
37268;DHT22;23154;52.542;13.362;2022-08-05T07:08:42;25.90;99.90
37268;DHT22;23154;52.542;13.362;2022-08-05T07:11:09;26.10;99.90
37268;DHT22;23154;52.542;13.362;2022-08-05T07:13:34;26.10;99.90
37268;DHT22;23154;52.542;13.362;2022-08-05T07:16:18;26.20;99.90
37268;DHT22;23154;52.542;13.362;2022-08-05T07:19:03;26.00;99.90
37268;DHT22;23154;52.542;13.362;2022-08-05T07:21:29;26.00;99.90
37268;DHT22;23154;52.542;13.362;2022-08-05T07:23:55;25.70;99.90
37268;DHT22;23154;52.542;13.362;2022-08-05T07:26:21;25.90;99.90
37268;DHT22;23154;52.542;13.362;2022-08-05T07:28:47;26.00;99.90
37268;DHT22;23154;52.542;13.362;2022-08-05T07:31:12;25.80;99.90
37268;DHT22;23154;52.542;13.362;2022-08-05T07:33:38;25.80;99.90
37268;DHT22;23154;52.542;13.362;2022-08-05T07:36:05;26.00;99.90
37268;DHT22;23154;52.542;13.362;2022-08-05T07:38:31;25.80;99.90
37268;DHT22;23154;52.542;13.362;2022-08-05T07:40:57;25.80;99.90
37268;DHT22;23154;52.542;13.362;2022-08-05T07:43:22;25.70;99.90
37268;DHT22;23154;52.542;13.362;2022-08-05T07:45:48;25.70;99.90
37268;DHT22;23154;52.542;13.362;2022-08-05T07:48:13;25.50;99.90
37268;DHT22;23154;52.542;13.362;2022-08-05T07:50:39;25.20;99.90
37268;DHT22;23154;52.542;13.362;2022-08-05T07:53:05;25.30;99.90
37268;DHT22;23154;52.542;13.362;2022-08-05T07:55:30;25.00;99.90
37268;DHT22;23154;52.542;13.362;2022-08-05T07:57:56;24.90;99.90
37268;DHT22;23154;52.542;13.362;2022-08-05T08:00:22;24.80;99.90
37268;DHT22;23154;52.542;13.362;2022-08-05T08:02:49;24.60;99.90
37268;DHT22;23154;52.542;13.362;2022-08-05T08:05:15;24.60;99.90
37268;DHT22;23154;52.542;13.362;2022-08-05T08:07:41;24.50;99.90
37268;DHT22;23154;52.542;13.362;2022-08-05T08:10:07;24.60;99.90
37268;DHT22;23154;52.542;13.362;2022-08-05T08:12:32;24.60;99.90
37268;DHT22;23154;52.542;13.362;2022-08-05T08:15:00;24.60;99.90
37268;DHT22;23154;52.542;13.362;2022-08-05T08:17:26;24.50;99.90
37268;DHT22;23154;52.542;13.362;2022-08-05T08:19:51;24.60;99.90
37268;DHT22;23154;52.542;13.362;2022-08-05T08:22:17;24.70;99.90
37268;DHT22;23154;52.542;13.362;2022-08-05T08:24:43;24.80;99.90
37268;DHT22;23154;52.542;13.362;2022-08-05T08:27:08;24.70;99.90
37268;DHT22;23154;52.542;13.362;2022-08-05T08:29:34;24.90;99.90
37268;DHT22;23154;52.542;13.362;2022-08-05T08:32:00;24.90;99.90
37268;DHT22;23154;52.542;13.362;2022-08-05T08:34:27;25.00;99.90
37268;DHT22;23154;52.542;13.362;2022-08-05T08:36:53;25.10;99.90
37268;DHT22;23154;52.542;13.362;2022-08-05T08:39:20;25.30;99.90
37268;DHT22;23154;52.542;13.362;2022-08-05T08:41:48;25.30;99.90
37268;DHT22;23154;52.542;13.362;2022-08-05T08:44:17;25.40;99.90
37268;DHT22;23154;52.542;13.362;2022-08-05T08:46:43;25.30;99.90
37268;DHT22;23154;52.542;13.362;2022-08-05T08:49:13;25.00;99.90
37268;DHT22;23154;52.542;13.362;2022-08-05T08:51:41;24.80;99.90
37268;DHT22;23154;52.542;13.362;2022-08-05T08:54:07;24.80;99.90
37268;DHT22;23154;52.542;13.362;2022-08-05T08:56:33;24.80;99.90
37268;DHT22;23154;52.542;13.362;2022-08-05T08:58:59;25.00;99.90
37268;DHT22;23154;52.542;13.362;2022-08-05T09:01:25;25.00;99.90
37268;DHT22;23154;52.542;13.362;2022-08-05T09:03:52;24.90;99.90
37268;DHT22;23154;52.542;13.362;2022-08-05T09:06:19;24.80;99.90
37268;DHT22;23154;52.542;13.362;2022-08-05T09:08:44;24.70;99.90
37268;DHT22;23154;52.542;13.362;2022-08-05T09:11:10;24.60;99.90
37268;DHT22;23154;52.542;13.362;2022-08-05T09:13:37;24.40;99.90
37268;DHT22;23154;52.542;13.362;2022-08-05T09:16:04;24.40;99.90
37268;DHT22;23154;52.542;13.362;2022-08-05T09:18:32;24.60;99.90
37268;DHT22;23154;52.542;13.362;2022-08-05T09:21:00;24.90;99.90
37268;DHT22;23154;52.542;13.362;2022-08-05T09:23:26;24.90;99.90
37268;DHT22;23154;52.542;13.362;2022-08-05T09:26:13;24.90;99.90
37268;DHT22;23154;52.542;13.362;2022-08-05T09:28:46;24.80;99.90
37268;DHT22;23154;52.542;13.362;2022-08-05T09:31:14;25.20;99.90
37268;DHT22;23154;52.542;13.362;2022-08-05T09:33:48;25.50;99.90
37268;DHT22;23154;52.542;13.362;2022-08-05T09:36:14;25.50;99.90
37268;DHT22;23154;52.542;13.362;2022-08-05T09:38:55;25.70;99.90
37268;DHT22;23154;52.542;13.362;2022-08-05T09:41:21;25.70;99.90
37268;DHT22;23154;52.542;13.362;2022-08-05T09:43:46;25.70;99.90
37268;DHT22;23154;52.542;13.362;2022-08-05T09:46:38;25.70;99.90
37268;DHT22;23154;52.542;13.362;2022-08-05T09:49:21;25.80;99.90
37268;DHT22;23154;52.542;13.362;2022-08-05T09:51:47;25.90;99.90
37268;DHT22;23154;52.542;13.362;2022-08-05T09:54:13;25.80;99.90
37268;DHT22;23154;52.542;13.362;2022-08-05T09:56:42;25.60;99.90
37268;DHT22;23154;52.542;13.362;2022-08-05T09:59:12;25.30;99.90
37268;DHT22;23154;52.542;13.362;2022-08-05T10:01:41;25.10;99.90
37268;DHT22;23154;52.542;13.362;2022-08-05T10:04:09;24.80;99.90
37268;DHT22;23154;52.542;13.362;2022-08-05T10:06:52;24.40;99.90
37268;DHT22;23154;52.542;13.362;2022-08-05T10:09:19;23.70;99.90
37268;DHT22;23154;52.542;13.362;2022-08-05T10:11:47;23.50;99.90
37268;DHT22;23154;52.542;13.362;2022-08-05T10:14:30;23.30;99.90
37268;DHT22;23154;52.542;13.362;2022-08-05T10:16:57;23.30;99.90
37268;DHT22;23154;52.542;13.362;2022-08-05T10:19:36;23.50;99.90
37268;DHT22;23154;52.542;13.362;2022-08-05T10:22:02;23.90;99.90
37268;DHT22;23154;52.542;13.362;2022-08-05T10:24:28;24.20;99.90
37268;DHT22;23154;52.542;13.362;2022-08-05T10:26:56;24.30;99.90
37268;DHT22;23154;52.542;13.362;2022-08-05T10:29:24;24.60;99.90
37268;DHT22;23154;52.542;13.362;2022-08-05T10:31:51;24.70;99.90
37268;DHT22;23154;52.542;13.362;2022-08-05T10:34:17;24.90;99.90
37268;DHT22;23154;52.542;13.362;2022-08-05T10:36:43;25.10;99.90
37268;DHT22;23154;52.542;13.362;2022-08-05T10:39:17;25.40;99.90
37268;DHT22;23154;52.542;13.362;2022-08-05T10:41:58;25.40;99.90
37268;DHT22;23154;52.542;13.362;2022-08-05T10:44:25;25.20;99.90
37268;DHT22;23154;52.542;13.362;2022-08-05T10:46:54;25.00;99.90
37268;DHT22;23154;52.542;13.362;2022-08-05T10:49:24;24.80;99.90
37268;DHT22;23154;52.542;13.362;2022-08-05T10:51:54;24.50;99.90
37268;DHT22;23154;52.542;13.362;2022-08-05T10:54:24;24.50;99.90
37268;DHT22;23154;52.542;13.362;2022-08-05T10:57:11;24.50;99.90
37268;DHT22;23154;52.542;13.362;2022-08-05T10:59:37;24.60;99.90
37268;DHT22;23154;52.542;13.362;2022-08-05T11:02:11;24.70;99.90
37268;DHT22;23154;52.542;13.362;2022-08-05T11:04:47;24.60;99.90
37268;DHT22;23154;52.542;13.362;2022-08-05T11:07:18;24.50;99.90
37268;DHT22;23154;52.542;13.362;2022-08-05T11:09:50;24.40;99.90
37268;DHT22;23154;52.542;13.362;2022-08-05T11:15:18;24.60;99.90
37268;DHT22;23154;52.542;13.362;2022-08-05T11:17:48;24.90;99.90
37268;DHT22;23154;52.542;13.362;2022-08-05T11:26:08;25.90;99.90
37268;DHT22;23154;52.542;13.362;2022-08-05T11:33:34;26.40;99.90
37268;DHT22;23154;52.542;13.362;2022-08-05T11:41:05;26.20;99.90
37268;DHT22;23154;52.542;13.362;2022-08-05T11:43:31;26.30;99.90
37268;DHT22;23154;52.542;13.362;2022-08-05T11:45:59;26.60;99.90
37268;DHT22;23154;52.542;13.362;2022-08-05T11:48:25;26.80;99.90
37268;DHT22;23154;52.542;13.362;2022-08-05T11:50:52;27.20;99.90
37268;DHT22;23154;52.542;13.362;2022-08-05T11:53:18;27.40;99.90
37268;DHT22;23154;52.542;13.362;2022-08-05T11:55:56;27.60;99.90
37268;DHT22;23154;52.542;13.362;2022-08-05T11:58:35;27.00;99.90
37268;DHT22;23154;52.542;13.362;2022-08-05T12:01:18;27.20;99.90
37268;DHT22;23154;52.542;13.362;2022-08-05T12:03:51;27.30;99.90
37268;DHT22;23154;52.542;13.362;2022-08-05T12:06:24;27.40;99.90
37268;DHT22;23154;52.542;13.362;2022-08-05T12:08:57;27.20;99.90
37268;DHT22;23154;52.542;13.362;2022-08-05T12:11:23;27.70;99.90
37268;DHT22;23154;52.542;13.362;2022-08-05T12:13:54;27.80;99.90
37268;DHT22;23154;52.542;13.362;2022-08-05T12:16:21;27.80;99.90
37268;DHT22;23154;52.542;13.362;2022-08-05T12:18:47;27.90;99.90
37268;DHT22;23154;52.542;13.362;2022-08-05T12:21:16;28.00;99.90
37268;DHT22;23154;52.542;13.362;2022-08-05T12:24:04;28.30;99.90
37268;DHT22;23154;52.542;13.362;2022-08-05T12:26:57;28.30;99.90
37268;DHT22;23154;52.542;13.362;2022-08-05T12:29:26;28.00;99.90
37268;DHT22;23154;52.542;13.362;2022-08-05T12:31:55;28.30;99.90
37268;DHT22;23154;52.542;13.362;2022-08-05T12:34:30;28.60;99.90
37268;DHT22;23154;52.542;13.362;2022-08-05T12:37:00;28.50;99.90
37268;DHT22;23154;52.542;13.362;2022-08-05T12:39:32;28.70;99.90
37268;DHT22;23154;52.542;13.362;2022-08-05T12:41:58;28.60;99.90
37268;DHT22;23154;52.542;13.362;2022-08-05T12:44:24;28.80;99.90
37268;DHT22;23154;52.542;13.362;2022-08-05T12:46:52;29.30;99.90
37268;DHT22;23154;52.542;13.362;2022-08-05T12:49:19;29.80;99.90
37268;DHT22;23154;52.542;13.362;2022-08-05T12:51:58;30.00;99.10
37268;DHT22;23154;52.542;13.362;2022-08-05T12:54:29;30.10;97.30
37268;DHT22;23154;52.542;13.362;2022-08-05T13:04:30;29.80;96.90
37268;DHT22;23154;52.542;13.362;2022-08-05T13:06:57;29.60;96.70
37268;DHT22;23154;52.542;13.362;2022-08-05T13:09:25;29.60;97.00
37268;DHT22;23154;52.542;13.362;2022-08-05T13:12:00;29.50;97.50
37268;DHT22;23154;52.542;13.362;2022-08-05T13:14:27;29.30;96.50
37268;DHT22;23154;52.542;13.362;2022-08-05T13:16:55;29.20;96.20
37268;DHT22;23154;52.542;13.362;2022-08-05T13:19:26;29.50;95.70
37268;DHT22;23154;52.542;13.362;2022-08-05T13:21:52;29.80;94.30
37268;DHT22;23154;52.542;13.362;2022-08-05T13:24:20;29.60;94.50
37268;DHT22;23154;52.542;13.362;2022-08-05T13:26:48;29.70;94.90
37268;DHT22;23154;52.542;13.362;2022-08-05T13:29:14;30.00;93.40
37268;DHT22;23154;52.542;13.362;2022-08-05T13:31:42;29.80;94.00
37268;DHT22;23154;52.542;13.362;2022-08-05T13:34:09;30.10;93.10
37268;DHT22;23154;52.542;13.362;2022-08-05T13:36:35;30.00;93.30
37268;DHT22;23154;52.542;13.362;2022-08-05T13:39:02;30.10;93.10
37268;DHT22;23154;52.542;13.362;2022-08-05T13:41:28;29.90;93.20
37268;DHT22;23154;52.542;13.362;2022-08-05T13:43:54;30.20;93.50
37268;DHT22;23154;52.542;13.362;2022-08-05T13:46:23;30.40;92.90
37268;DHT22;23154;52.542;13.362;2022-08-05T13:48:49;30.30;92.70
37268;DHT22;23154;52.542;13.362;2022-08-05T13:51:25;30.20;92.80
37268;DHT22;23154;52.542;13.362;2022-08-05T13:53:52;29.90;93.40
37268;DHT22;23154;52.542;13.362;2022-08-05T13:56:19;30.20;94.00
37268;DHT22;23154;52.542;13.362;2022-08-05T13:58:46;30.10;94.30
37268;DHT22;23154;52.542;13.362;2022-08-05T14:01:12;29.90;94.80
37268;DHT22;23154;52.542;13.362;2022-08-05T14:03:37;29.80;94.50
37268;DHT22;23154;52.542;13.362;2022-08-05T14:06:03;29.90;94.90
37268;DHT22;23154;52.542;13.362;2022-08-05T14:08:29;30.00;94.80
37268;DHT22;23154;52.542;13.362;2022-08-05T14:10:54;30.00;95.40
37268;DHT22;23154;52.542;13.362;2022-08-05T14:13:20;29.90;96.00
37268;DHT22;23154;52.542;13.362;2022-08-05T14:15:47;30.70;95.80
37268;DHT22;23154;52.542;13.362;2022-08-05T14:18:13;31.50;94.20
37268;DHT22;23154;52.542;13.362;2022-08-05T14:20:39;31.60;93.40
37268;DHT22;23154;52.542;13.362;2022-08-05T14:23:05;31.40;93.80
37268;DHT22;23154;52.542;13.362;2022-08-05T14:25:30;31.10;94.00
37268;DHT22;23154;52.542;13.362;2022-08-05T14:27:57;30.70;94.80
37268;DHT22;23154;52.542;13.362;2022-08-05T14:30:23;29.70;96.30
37268;DHT22;23154;52.542;13.362;2022-08-05T14:32:49;29.60;96.80
37268;DHT22;23154;52.542;13.362;2022-08-05T14:35:15;29.50;97.30
37268;DHT22;23154;52.542;13.362;2022-08-05T14:37:41;29.40;97.80
37268;DHT22;23154;52.542;13.362;2022-08-05T14:40:07;29.20;98.30
37268;DHT22;23154;52.542;13.362;2022-08-05T14:42:33;29.10;98.60
37268;DHT22;23154;52.542;13.362;2022-08-05T14:44:59;28.70;99.10
37268;DHT22;23154;52.542;13.362;2022-08-05T14:47:24;28.50;99.60
37268;DHT22;23154;52.542;13.362;2022-08-05T14:49:51;28.30;99.90
37268;DHT22;23154;52.542;13.362;2022-08-05T14:52:17;28.20;99.90
37268;DHT22;23154;52.542;13.362;2022-08-05T14:54:44;28.00;99.90
37268;DHT22;23154;52.542;13.362;2022-08-05T14:57:09;27.70;99.90
37268;DHT22;23154;52.542;13.362;2022-08-05T14:59:35;27.50;99.90
37268;DHT22;23154;52.542;13.362;2022-08-05T15:02:00;27.20;99.90
37268;DHT22;23154;52.542;13.362;2022-08-05T15:04:26;26.90;99.90
37268;DHT22;23154;52.542;13.362;2022-08-05T15:06:52;26.70;99.90
37268;DHT22;23154;52.542;13.362;2022-08-05T15:09:18;26.50;99.90
37268;DHT22;23154;52.542;13.362;2022-08-05T15:11:44;26.40;99.90
37268;DHT22;23154;52.542;13.362;2022-08-05T15:14:10;26.40;99.90
37268;DHT22;23154;52.542;13.362;2022-08-05T15:16:36;26.30;99.90
37268;DHT22;23154;52.542;13.362;2022-08-05T15:19:01;26.20;99.90
37268;DHT22;23154;52.542;13.362;2022-08-05T15:21:27;26.10;99.90
37268;DHT22;23154;52.542;13.362;2022-08-05T15:23:52;26.00;99.90
37268;DHT22;23154;52.542;13.362;2022-08-05T15:26:18;25.90;99.90
37268;DHT22;23154;52.542;13.362;2022-08-05T15:28:44;25.80;99.90
37268;DHT22;23154;52.542;13.362;2022-08-05T15:31:10;25.70;99.90
37268;DHT22;23154;52.542;13.362;2022-08-05T15:33:36;25.60;99.90
37268;DHT22;23154;52.542;13.362;2022-08-05T15:36:05;25.60;99.90
37268;DHT22;23154;52.542;13.362;2022-08-05T15:38:34;25.60;99.90
37268;DHT22;23154;52.542;13.362;2022-08-05T15:40:59;25.50;99.90
37268;DHT22;23154;52.542;13.362;2022-08-05T15:43:25;25.50;99.90
37268;DHT22;23154;52.542;13.362;2022-08-05T15:45:51;25.50;99.90
37268;DHT22;23154;52.542;13.362;2022-08-05T15:48:17;25.30;99.90
37268;DHT22;23154;52.542;13.362;2022-08-05T15:50:46;25.20;99.90
37268;DHT22;23154;52.542;13.362;2022-08-05T15:53:13;25.10;99.90
37268;DHT22;23154;52.542;13.362;2022-08-05T15:55:41;25.20;99.90
37268;DHT22;23154;52.542;13.362;2022-08-05T15:58:09;25.10;99.90